Time;durP1;ratioP1;P1;durP2;ratioP2;P2;SDS_P1;SDS_P2;PMS_P1;PMS_P2;Temp;Humidity;BMP_temperature;BMP_pressure;BME280_temperature;BME280_humidity;BME280_pressure;Samples;Min_cycle;Max_cycle;Signal;HPM_P1;HPM_P2
2023/05/12 00:00:56;;;;;;;57.60;18.63;;;;;;;;;;6258312;22;20438;-92
2023/05/12 00:03:35;;;;;;;54.53;18.00;;;;;;;;;;6260105;22;20437;-92
2023/05/12 00:06:04;;;;;;;55.83;17.60;;;;;;;;;;6283536;22;20124;-92
2023/05/12 00:08:38;;;;;;;63.53;18.80;;;;;;;;;;6283579;22;20016;-92
2023/05/12 00:11:05;;;;;;;48.57;18.00;;;;;;;;;;6286460;22;20003;-93
2023/05/12 00:13:32;;;;;;;70.30;18.33;;;;;;;;;;6283398;22;20452;-94
2023/05/12 00:15:59;;;;;;;58.33;19.38;;;;;;;;;;6283446;22;20008;-93
2023/05/12 00:18:32;;;;;;;65.38;18.98;;;;;;;;;;6282850;22;20423;-93
2023/05/12 00:21:11;;;;;;;57.45;18.20;;;;;;;;;;6257783;22;20082;-94
2023/05/12 00:23:50;;;;;;;50.47;17.10;;;;;;;;;;6284972;22;20008;-94
2023/05/12 00:26:17;;;;;;;47.67;16.60;;;;;;;;;;6258869;22;20070;-94
2023/05/12 00:28:46;;;;;;;60.70;18.08;;;;;;;;;;6258451;22;20035;-93
2023/05/12 00:31:12;;;;;;;54.45;17.77;;;;;;;;;;6259022;22;20170;-93
2023/05/12 00:33:38;;;;;;;48.95;17.15;;;;;;;;;;6282749;22;20022;-92
2023/05/12 00:36:06;;;;;;;49.80;16.15;;;;;;;;;;6283489;22;20233;-93
2023/05/12 00:38:36;;;;;;;61.33;17.17;;;;;;;;;;6283600;22;20015;-93
2023/05/12 00:41:25;;;;;;;61.13;16.90;;;;;;;;;;6283803;22;20076;-93
2023/05/12 00:43:51;;;;;;;46.30;16.83;;;;;;;;;;6285376;22;20014;-93
2023/05/12 00:46:27;;;;;;;60.10;16.38;;;;;;;;;;6258555;22;20007;-94
2023/05/12 00:48:56;;;;;;;62.13;16.65;;;;;;;;;;6259482;22;20012;-93
2023/05/12 00:51:35;;;;;;;56.55;16.67;;;;;;;;;;6283614;22;20038;-94
2023/05/12 00:54:09;;;;;;;53.03;16.83;;;;;;;;;;6283849;22;20008;-93
2023/05/12 00:56:41;;;;;;;55.00;16.42;;;;;;;;;;6283049;22;20015;-93
2023/05/12 00:59:09;;;;;;;57.33;17.38;;;;;;;;;;6258748;22;20038;-93
2023/05/12 01:01:39;;;;;;;59.53;18.23;;;;;;;;;;6281885;22;20008;-94
2023/05/12 01:07:08;;;;;;;52.00;17.13;;;;;;;;;;6239767;22;20457;-93
2023/05/12 01:09:40;;;;;;;61.58;18.00;;;;;;;;;;6280660;22;20266;-93
2023/05/12 01:12:06;;;;;;;49.40;16.27;;;;;;;;;;6257828;22;20012;-93
2023/05/12 01:14:38;;;;;;;51.97;16.83;;;;;;;;;;6283456;22;20011;-93
2023/05/12 01:17:14;;;;;;;63.42;18.38;;;;;;;;;;6280999;22;20008;-92
2023/05/12 01:19:43;;;;;;;;;;;;;;;;;;6284254;22;20082;-93
2023/05/12 01:22:19;;;;;;;46.88;15.88;;;;;;;;;;6284455;22;20282;-93
2023/05/12 01:24:53;;;;;;;52.13;16.52;;;;;;;;;;6284129;22;20000;-94
2023/05/12 01:27:21;;;;;;;56.97;16.63;;;;;;;;;;6284788;22;20017;-94
2023/05/12 01:29:49;;;;;;;56.05;16.85;;;;;;;;;;6258646;22;20090;-92
2023/05/12 01:32:21;;;;;;;47.80;15.68;;;;;;;;;;6283596;22;20004;-92
2023/05/12 01:34:49;;;;;;;54.13;17.38;;;;;;;;;;6295931;22;20083;-93
2023/05/12 01:37:18;;;;;;;54.78;17.80;;;;;;;;;;6303262;22;20010;-93
2023/05/12 01:39:45;;;;;;;60.92;17.77;;;;;;;;;;6275693;22;19995;-93
2023/05/12 01:42:12;;;;;;;54.28;18.13;;;;;;;;;;6300024;22;19992;-92
2023/05/12 01:44:45;;;;;;;64.93;20.25;;;;;;;;;;6275954;22;20051;-94
2023/05/12 01:47:15;;;;;;;67.53;19.17;;;;;;;;;;6273970;22;19988;-93
2023/05/12 01:49:44;;;;;;;62.42;18.40;;;;;;;;;;6298155;22;19996;-92
2023/05/12 01:52:13;;;;;;;64.88;18.65;;;;;;;;;;6268226;22;20030;-94
2023/05/12 01:54:39;;;;;;;66.05;19.90;;;;;;;;;;6269357;22;20071;-93
2023/05/12 01:57:12;;;;;;;71.93;19.30;;;;;;;;;;6263692;22;20012;-92
2023/05/12 01:59:38;;;;;;;60.45;19.50;;;;;;;;;;6264431;22;20011;-92
2023/05/12 02:02:04;;;;;;;71.95;20.70;;;;;;;;;;6260507;22;20008;-93
2023/05/12 02:04:33;;;;;;;70.10;20.35;;;;;;;;;;6284110;22;20008;-93
2023/05/12 02:06:59;;;;;;;65.00;21.67;;;;;;;;;;6258375;22;20019;-93
2023/05/12 02:09:29;;;;;;;69.72;20.65;;;;;;;;;;6285674;22;20008;-93
2023/05/12 02:11:55;;;;;;;62.55;20.83;;;;;;;;;;6283727;22;20081;-93
2023/05/12 02:14:21;;;;;;;71.60;20.15;;;;;;;;;;6258708;22;20007;-93
2023/05/12 02:16:51;;;;;;;67.35;20.55;;;;;;;;;;6284293;22;20015;-93
2023/05/12 02:19:19;;;;;;;74.38;20.55;;;;;;;;;;6258021;22;20012;-93
2023/05/12 02:21:52;;;;;;;82.57;21.58;;;;;;;;;;6282331;22;20019;-92
2023/05/12 02:24:20;;;;;;;75.85;21.20;;;;;;;;;;6258041;22;20015;-93
2023/05/12 02:26:57;;;;;;;72.18;21.13;;;;;;;;;;6284252;22;20016;-93
2023/05/12 02:29:31;;;;;;;69.35;21.02;;;;;;;;;;6257690;22;20078;-92
2023/05/12 02:32:04;;;;;;;69.40;22.15;;;;;;;;;;6282813;22;20494;-92
2023/05/12 02:34:37;;;;;;;70.13;20.23;;;;;;;;;;6281825;22;20061;-93
2023/05/12 02:37:16;;;;;;;78.03;19.63;;;;;;;;;;6287040;22;20012;-93
2023/05/12 02:39:47;;;;;;;68.95;19.42;;;;;;;;;;6258709;22;20015;-91
2023/05/12 02:42:13;;;;;;;61.92;21.15;;;;;;;;;;6282485;22;20004;-93
2023/05/12 02:44:43;;;;;;;81.50;21.40;;;;;;;;;;6255627;22;20015;-92
2023/05/12 02:47:31;;;;;;;85.47;21.27;;;;;;;;;;6259257;22;20081;-93
2023/05/12 02:49:59;;;;;;;85.43;22.20;;;;;;;;;;6257216;22;20067;-93
2023/05/12 02:52:25;;;;;;;64.97;20.55;;;;;;;;;;6254716;22;20498;-94
2023/05/12 02:54:52;;;;;;;84.75;22.30;;;;;;;;;;6281200;22;20361;-93
2023/05/12 02:57:20;;;;;;;78.97;21.48;;;;;;;;;;6258095;22;20008;-93
2023/05/12 02:59:54;;;;;;;79.78;25.90;;;;;;;;;;6284286;22;20031;-92
2023/05/12 03:02:21;;;;;;;75.05;20.52;;;;;;;;;;6258142;22;20022;-94
2023/05/12 03:04:48;;;;;;;85.20;22.48;;;;;;;;;;6282385;22;20000;-93
2023/05/12 03:07:30;;;;;;;77.80;21.30;;;;;;;;;;6256871;22;20012;-93
2023/05/12 03:09:58;;;;;;;79.90;21.45;;;;;;;;;;6283545;22;20393;-95
2023/05/12 03:12:27;;;;;;;76.72;20.88;;;;;;;;;;6282957;22;19999;-93
2023/05/12 03:14:56;;;;;;;79.45;22.98;;;;;;;;;;6258012;22;20014;-93
2023/05/12 03:17:26;;;;;;;87.10;22.27;;;;;;;;;;6285789;22;20409;-94
2023/05/12 03:19:56;;;;;;;75.05;20.75;;;;;;;;;;6284141;22;20454;-94
2023/05/12 03:22:23;;;;;;;81.95;22.00;;;;;;;;;;6256732;22;20559;-93
2023/05/12 03:24:50;;;;;;;77.35;21.73;;;;;;;;;;6282884;22;20509;-93
2023/05/12 03:27:24;;;;;;;82.70;20.58;;;;;;;;;;6283232;22;20035;-93
2023/05/12 03:30:01;;;;;;;77.57;21.40;;;;;;;;;;6282197;22;20004;-93
2023/05/12 03:32:27;;;;;;;83.95;21.42;;;;;;;;;;6256626;22;20041;-93
2023/05/12 03:34:56;;;;;;;75.95;21.15;;;;;;;;;;6282113;22;20014;-93
2023/05/12 03:37:38;;;;;;;78.40;21.33;;;;;;;;;;6284573;22;20180;-93
2023/05/12 03:40:07;;;;;;;81.63;21.80;;;;;;;;;;6256652;22;20045;-94
2023/05/12 03:42:33;;;;;;;81.47;21.00;;;;;;;;;;6256243;22;20019;-94
2023/05/12 03:44:59;;;;;;;86.18;22.08;;;;;;;;;;6281984;22;20007;-92
2023/05/12 03:47:26;;;;;;;63.28;20.63;;;;;;;;;;6283161;22;20008;-93
2023/05/12 03:49:52;;;;;;;75.80;21.77;;;;;;;;;;6255915;22;20067;-95
2023/05/12 03:52:21;;;;;;;90.85;21.38;;;;;;;;;;6256069;22;20436;-93
2023/05/12 03:54:50;;;;;;;79.15;21.58;;;;;;;;;;6282684;22;20434;-93
2023/05/12 03:57:22;;;;;;;70.05;21.25;;;;;;;;;;6282492;22;20012;-93
2023/05/12 03:59:49;;;;;;;72.07;20.90;;;;;;;;;;6256983;22;20003;-94
2023/05/12 04:02:15;;;;;;;81.80;21.67;;;;;;;;;;6257180;22;20059;-93
2023/05/12 04:04:41;;;;;;;90.43;22.80;;;;;;;;;;6281083;22;20422;-93
2023/05/12 04:07:07;;;;;;;79.47;21.77;;;;;;;;;;6256542;22;20007;-93
2023/05/12 04:09:38;;;;;;;86.05;21.98;;;;;;;;;;6257408;22;20008;-93
2023/05/12 04:12:13;;;;;;;85.45;23.42;;;;;;;;;;6257520;22;20007;-93
2023/05/12 04:14:40;;;;;;;72.97;21.25;;;;;;;;;;6282250;22;20008;-94
2023/05/12 04:17:09;;;;;;;87.72;23.25;;;;;;;;;;6256430;22;20015;-93
2023/05/12 04:19:37;;;;;;;82.53;23.40;;;;;;;;;;6281995;22;20003;-93
2023/05/12 04:22:05;;;;;;;93.72;23.33;;;;;;;;;;6281902;22;20007;-92
2023/05/12 04:24:33;;;;;;;61.42;20.75;;;;;;;;;;6282700;22;20015;-92
2023/05/12 04:27:24;;;;;;;93.47;21.58;;;;;;;;;;6282171;22;20023;-93
2023/05/12 04:29:50;;;;;;;77.13;22.02;;;;;;;;;;6258857;22;20012;-94
2023/05/12 04:32:17;;;;;;;84.40;22.17;;;;;;;;;;6282491;22;20457;-94
2023/05/12 04:35:10;;;;;;;72.72;22.63;;;;;;;;;;6282758;22;20086;-93
2023/05/12 04:37:39;;;;;;;86.50;24.42;;;;;;;;;;6259345;22;20050;-94
2023/05/12 04:40:07;;;;;;;95.38;22.65;;;;;;;;;;6282632;22;20011;-93
2023/05/12 04:42:34;;;;;;;80.13;23.65;;;;;;;;;;6283270;22;20476;-93
2023/05/12 04:45:07;;;;;;;65.25;22.38;;;;;;;;;;6247891;22;20485;-93
2023/05/12 04:47:34;;;;;;;75.63;23.50;;;;;;;;;;6257152;22;20373;-94
2023/05/12 04:50:07;;;;;;;71.88;22.30;;;;;;;;;;6281423;22;20008;-93
2023/05/12 04:52:33;;;;;;;80.53;22.67;;;;;;;;;;6280424;22;20335;-93
2023/05/12 04:54:59;;;;;;;77.95;22.73;;;;;;;;;;6257538;22;20276;-93
2023/05/12 04:57:29;;;;;;;93.90;23.83;;;;;;;;;;6283929;22;20032;-93
2023/05/12 04:59:57;;;;;;;71.40;22.00;;;;;;;;;;6259432;22;20015;-92
2023/05/12 05:02:32;;;;;;;84.10;23.08;;;;;;;;;;6258702;22;20026;-93
2023/05/12 05:05:05;;;;;;;72.13;23.23;;;;;;;;;;6260654;22;20269;-93
2023/05/12 05:07:33;;;;;;;75.32;23.55;;;;;;;;;;6283578;22;20012;-93
2023/05/12 05:10:02;;;;;;;79.78;23.33;;;;;;;;;;6254754;22;20094;-92
2023/05/12 05:12:41;;;;;;;77.00;23.85;;;;;;;;;;6284863;22;20011;-93
2023/05/12 05:15:15;;;;;;;88.28;24.73;;;;;;;;;;6283751;22;20007;-93
2023/05/12 05:17:48;;;;;;;81.53;25.45;;;;;;;;;;6259019;22;20083;-93
2023/05/12 05:20:16;;;;;;;79.97;24.40;;;;;;;;;;6283388;22;20110;-93
2023/05/12 05:22:43;;;;;;;73.35;25.00;;;;;;;;;;6283084;22;20018;-93
2023/05/12 05:25:20;;;;;;;;;;;;;;;;;;;;;
2023/05/12 05:27:47;;;;;;;84.75;24.42;;;;;;;;;;6284379;22;20031;-93
2023/05/12 05:30:16;;;;;;;78.95;24.52;;;;;;;;;;6259996;22;20029;-93
2023/05/12 05:32:47;;;;;;;71.05;24.73;;;;;;;;;;6284535;22;20096;-92
2023/05/12 05:35:13;;;;;;;86.88;26.23;;;;;;;;;;6283320;22;20079;-93
2023/05/12 05:38:07;;;;;;;;;;;;;;;;;;;;;
2023/05/12 05:40:42;;;;;;;73.68;24.30;;;;;;;;;;6285725;22;20032;-93
2023/05/12 05:43:08;;;;;;;75.82;25.20;;;;;;;;;;6260145;22;20015;-94
2023/05/12 05:45:50;;;;;;;71.13;22.98;;;;;;;;;;6283844;22;20004;-92
2023/05/12 05:48:16;;;;;;;80.43;26.02;;;;;;;;;;6284575;22;20003;-93
2023/05/12 05:50:48;;;;;;;81.57;26.63;;;;;;;;;;6282126;22;20026;-93
2023/05/12 05:53:17;;;;;;;86.90;26.98;;;;;;;;;;6259239;22;20011;-94
2023/05/12 05:55:50;;;;;;;82.72;26.23;;;;;;;;;;6257362;22;20008;-92
2023/05/12 05:58:18;;;;;;;73.55;25.55;;;;;;;;;;6283855;22;20027;-93
2023/05/12 06:01:05;;;;;;;80.03;26.27;;;;;;;;;;6286446;22;20022;-93
2023/05/12 06:03:31;;;;;;;73.78;25.60;;;;;;;;;;6288074;22;20087;-94
2023/05/12 06:05:58;;;;;;;86.18;26.10;;;;;;;;;;6271000;22;19996;-94
2023/05/12 06:11:00;;;;;;;81.78;27.17;;;;;;;;;;6198839;22;20024;-92
2023/05/12 06:13:27;;;;;;;73.50;25.23;;;;;;;;;;6175128;23;20485;-92
2023/05/12 06:15:53;;;;;;;86.80;28.27;;;;;;;;;;6176308;23;20009;-92
2023/05/12 06:18:22;;;;;;;87.82;27.20;;;;;;;;;;6175204;23;20335;-92
2023/05/12 06:20:48;;;;;;;84.22;26.58;;;;;;;;;;6172153;23;20055;-92
2023/05/12 06:23:14;;;;;;;75.13;28.85;;;;;;;;;;6170092;23;20005;-92
2023/05/12 06:25:40;;;;;;;77.85;26.45;;;;;;;;;;6167953;23;20023;-92
2023/05/12 06:28:07;;;;;;;66.97;26.42;;;;;;;;;;6164439;23;20040;-93
2023/05/12 06:33:33;;;;;;;68.40;25.73;;;;;;;;;;6190979;23;20016;-96
2023/05/12 06:36:01;;;;;;;67.38;26.48;;;;;;;;;;6138175;23;20029;-96
2023/05/12 06:38:35;;;;;;;84.78;27.45;;;;;;;;;;6187854;23;20031;-95
2023/05/12 06:41:06;;;;;;;73.15;29.70;;;;;;;;;;6210669;23;20009;-95
2023/05/12 06:43:33;;;;;;;78.80;28.90;;;;;;;;;;6178722;23;20013;-96
2023/05/12 06:46:01;;;;;;;84.57;29.80;;;;;;;;;;6210809;23;20009;-96
2023/05/12 06:48:59;;;;;;;77.32;30.02;;;;;;;;;;6209013;23;20003;-96
2023/05/12 06:51:35;;;;;;;84.53;30.67;;;;;;;;;;6208755;23;20048;-96
2023/05/12 06:54:09;;;;;;;78.55;30.45;;;;;;;;;;6211585;23;19996;-96
2023/05/12 06:56:44;;;;;;;84.70;30.50;;;;;;;;;;6210071;23;20428;-96
2023/05/12 06:59:21;;;;;;;82.28;31.63;;;;;;;;;;6211109;23;20033;-96
2023/05/12 07:02:01;;;;;;;69.20;31.23;;;;;;;;;;6185577;23;19989;-96
2023/05/12 07:04:37;;;;;;;69.80;31.75;;;;;;;;;;6198896;23;20005;-95
2023/05/12 07:07:05;;;;;;;75.65;31.98;;;;;;;;;;6210933;23;20012;-96
2023/05/12 07:09:44;;;;;;;81.15;33.17;;;;;;;;;;6211169;23;20016;-96
2023/05/12 07:12:31;;;;;;;79.93;33.90;;;;;;;;;;6250150;22;20016;-95
2023/05/12 07:15:04;;;;;;;78.28;33.95;;;;;;;;;;6209955;23;19992;-96
2023/05/12 07:17:48;;;;;;;80.85;34.05;;;;;;;;;;6209573;23;20004;-96
2023/05/12 07:20:30;;;;;;;80.43;34.72;;;;;;;;;;6200116;23;20005;-96
2023/05/12 07:23:14;;;;;;;79.53;34.22;;;;;;;;;;6208599;23;20044;-96
2023/05/12 07:25:59;;;;;;;69.30;33.47;;;;;;;;;;6184692;23;20069;-96
2023/05/12 07:28:35;;;;;;;73.55;33.88;;;;;;;;;;6185880;23;20021;-96
2023/05/12 07:31:26;;;;;;;66.85;33.20;;;;;;;;;;6209262;23;20020;-96
2023/05/12 07:34:17;;;;;;;66.60;34.08;;;;;;;;;;6205562;23;20009;-96
2023/05/12 07:39:56;;;;;;;64.10;32.95;;;;;;;;;;6208867;23;20020;-96
2023/05/12 07:42:47;;;;;;;57.20;30.75;;;;;;;;;;6180333;23;20001;-96
2023/05/12 07:48:15;;;;;;;53.70;30.38;;;;;;;;;;6178176;23;20017;-96
2023/05/12 07:51:07;;;;;;;60.30;29.10;;;;;;;;;;6259141;23;19988;-95
2023/05/12 07:53:38;;;;;;;50.45;28.45;;;;;;;;;;6222009;23;19988;-96
2023/05/12 07:56:11;;;;;;;53.65;29.70;;;;;;;;;;6243579;23;20087;-96
2023/05/12 07:58:40;;;;;;;52.90;27.80;;;;;;;;;;6219788;23;20012;-94
2023/05/12 08:01:12;;;;;;;54.05;30.42;;;;;;;;;;6270814;23;20001;-94
2023/05/12 08:03:41;;;;;;;47.80;27.40;;;;;;;;;;6219211;23;20008;-95
2023/05/12 08:06:29;;;;;;;57.80;28.40;;;;;;;;;;6268029;23;19988;-95
2023/05/12 08:09:01;;;;;;;46.17;27.38;;;;;;;;;;6218081;23;20012;-95
2023/05/12 08:11:30;;;;;;;52.30;27.85;;;;;;;;;;6213002;23;20008;-95
2023/05/12 08:13:57;;;;;;;46.70;28.65;;;;;;;;;;6209423;22;20017;-96
2023/05/12 08:16:29;;;;;;;47.33;27.30;;;;;;;;;;6233622;23;20008;-94
2023/05/12 08:18:58;;;;;;;53.13;27.52;;;;;;;;;;6206509;23;20009;-95
2023/05/12 08:21:42;;;;;;;47.05;28.13;;;;;;;;;;6211344;23;20013;-96
2023/05/12 08:24:08;;;;;;;47.08;27.63;;;;;;;;;;6226809;23;20014;-96
2023/05/12 08:26:35;;;;;;;44.72;26.33;;;;;;;;;;6235052;23;20020;-96
2023/05/12 08:29:07;;;;;;;44.00;27.00;;;;;;;;;;6211004;23;20012;-96
2023/05/12 08:31:39;;;;;;;46.47;27.67;;;;;;;;;;6236719;23;20007;-96
2023/05/12 08:34:12;;;;;;;44.50;26.35;;;;;;;;;;6212057;23;20008;-96
2023/05/12 08:36:45;;;;;;;43.92;26.50;;;;;;;;;;6237211;23;20000;-96
2023/05/12 08:39:21;;;;;;;51.28;26.65;;;;;;;;;;6236655;23;20044;-96
2023/05/12 08:41:55;;;;;;;37.97;23.55;;;;;;;;;;6237918;23;20039;-95
2023/05/12 08:44:23;;;;;;;40.55;22.88;;;;;;;;;;6211062;23;20009;-96
2023/05/12 08:47:21;;;;;;;38.97;23.88;;;;;;;;;;6235998;23;20013;-95
2023/05/12 08:50:01;;;;;;;38.90;22.38;;;;;;;;;;6231599;23;20019;-95
2023/05/12 08:52:40;;;;;;;33.63;21.55;;;;;;;;;;6233859;23;20008;-96
2023/05/12 08:58:15;;;;;;;36.30;21.83;;;;;;;;;;6234501;23;20059;-96
2023/05/12 09:00:46;;;;;;;31.85;20.70;;;;;;;;;;6232176;23;20035;-96
2023/05/12 09:03:13;;;;;;;29.42;19.13;;;;;;;;;;6232750;23;20009;-95
2023/05/12 09:06:07;;;;;;;35.22;23.00;;;;;;;;;;6174810;23;20100;-96
2023/05/12 09:08:51;;;;;;;35.63;22.48;;;;;;;;;;6167027;23;20214;-96
2023/05/12 09:11:30;;;;;;;29.17;19.50;;;;;;;;;;6173646;23;20006;-96
2023/05/12 09:14:10;;;;;;;32.60;18.83;;;;;;;;;;6168000;23;20106;-96
2023/05/12 09:16:44;;;;;;;33.13;21.63;;;;;;;;;;6171526;23;20009;-96
2023/05/12 09:19:10;;;;;;;30.55;18.90;;;;;;;;;;6172184;23;20073;-96
2023/05/12 09:21:36;;;;;;;34.28;20.35;;;;;;;;;;6145121;23;20028;-96
2023/05/12 09:24:08;;;;;;;34.85;19.83;;;;;;;;;;6171236;23;20010;-96
2023/05/12 09:27:15;;;;;;;28.80;18.35;;;;;;;;;;6170334;23;20016;-96
2023/05/12 09:29:53;;;;;;;27.27;18.02;;;;;;;;;;6169889;23;20021;-96
2023/05/12 09:32:58;;;;;;;29.20;19.23;;;;;;;;;;6146818;23;20013;-95
2023/05/12 09:35:30;;;;;;;36.40;20.10;;;;;;;;;;6081616;23;20067;-96
2023/05/12 09:38:14;;;;;;;30.25;18.25;;;;;;;;;;6033746;23;20014;-96
2023/05/12 09:40:46;;;;;;;26.95;18.45;;;;;;;;;;6058432;23;20014;-96
2023/05/12 09:43:17;;;;;;;25.67;17.60;;;;;;;;;;6099792;23;20006;-95
2023/05/12 09:45:54;;;;;;;30.77;18.58;;;;;;;;;;6115646;23;20010;-96
2023/05/12 09:51:25;;;;;;;24.75;16.95;;;;;;;;;;6203482;23;20037;-95
2023/05/12 09:53:57;;;;;;;25.42;17.08;;;;;;;;;;6203700;23;20001;-96
2023/05/12 09:56:34;;;;;;;23.48;16.33;;;;;;;;;;6203960;23;20001;-96
2023/05/12 09:59:33;;;;;;;24.45;16.52;;;;;;;;;;6179002;23;20503;-95
2023/05/12 10:02:04;;;;;;;26.75;15.90;;;;;;;;;;6188571;23;20020;-95
2023/05/12 10:04:32;;;;;;;26.73;16.83;;;;;;;;;;6178472;23;20009;-94
2023/05/12 10:06:59;;;;;;;26.38;17.05;;;;;;;;;;6202473;23;20009;-94
2023/05/12 10:09:47;;;;;;;23.23;15.93;;;;;;;;;;6198872;23;20012;-96
2023/05/12 10:12:29;;;;;;;21.67;17.17;;;;;;;;;;6205269;23;19996;-96
2023/05/12 10:15:39;;;;;;;22.63;16.92;;;;;;;;;;6152859;23;20025;-96
2023/05/12 10:18:16;;;;;;;26.98;16.98;;;;;;;;;;6071665;23;20011;-96
2023/05/12 10:20:45;;;;;;;25.88;16.83;;;;;;;;;;6125551;23;20002;-95
2023/05/12 10:23:18;;;;;;;24.55;17.88;;;;;;;;;;6116124;23;20467;-96
2023/05/12 10:26:16;;;;;;;21.55;15.05;;;;;;;;;;6143778;23;20039;-96
2023/05/12 10:28:42;;;;;;;;;;;;;;;;;;6142273;23;20010;-94
2023/05/12 10:31:13;;;;;;;;;;;;;;;;;;6120172;23;19915;-96
2023/05/12 10:33:55;;;;;;;16.55;12.27;;;;;;;;;;6119705;23;19928;-95
2023/05/12 10:39:18;;;;;;;19.02;13.80;;;;;;;;;;6140602;23;20048;-96
2023/05/12 10:41:45;;;;;;;23.98;13.23;;;;;;;;;;6139868;23;20018;-96
2023/05/12 10:46:58;;;;;;;18.38;13.85;;;;;;;;;;6200754;23;20024;-96
2023/05/12 10:49:36;;;;;;;17.45;12.93;;;;;;;;;;6204763;23;20013;-96
2023/05/12 10:52:24;;;;;;;17.63;14.15;;;;;;;;;;6204708;23;20336;-95
2023/05/12 10:54:59;;;;;;;20.48;13.55;;;;;;;;;;6181481;23;20000;-96
2023/05/12 10:57:29;;;;;;;17.92;12.32;;;;;;;;;;6207893;23;20005;-96
2023/05/12 11:00:02;;;;;;;19.48;11.50;;;;;;;;;;6183962;23;20096;-96
2023/05/12 11:02:31;;;;;;;23.73;12.88;;;;;;;;;;6207990;23;20008;-96
2023/05/12 11:05:17;;;;;;;17.65;12.77;;;;;;;;;;6183822;23;20004;-96
2023/05/12 11:07:49;;;;;;;17.13;12.20;;;;;;;;;;6206919;23;20491;-96
2023/05/12 11:10:25;;;;;;;16.77;12.13;;;;;;;;;;6204091;23;20001;-95
2023/05/12 11:13:07;;;;;;;18.30;10.75;;;;;;;;;;6182268;23;20001;-96
2023/05/12 11:15:45;;;;;;;17.15;11.05;;;;;;;;;;6180922;23;20017;-96
2023/05/12 11:18:22;;;;;;;18.63;10.80;;;;;;;;;;6207818;23;20009;-96
2023/05/12 11:21:03;;;;;;;14.02;10.93;;;;;;;;;;6208338;23;20064;-96
2023/05/12 11:23:34;;;;;;;16.80;10.05;;;;;;;;;;6209138;23;20013;-96
2023/05/12 11:26:18;;;;;;;13.95;9.38;;;;;;;;;;6186216;23;20087;-96
2023/05/12 11:32:30;;;;;;;12.88;8.32;;;;;;;;;;6193541;23;20009;-96
2023/05/12 11:35:18;;;;;;;14.40;7.70;;;;;;;;;;6203742;23;20020;-96
2023/05/12 11:37:55;;;;;;;9.85;7.07;;;;;;;;;;6187046;23;20009;-96
2023/05/12 11:43:49;;;;;;;10.48;7.15;;;;;;;;;;6064580;23;20000;-95
2023/05/12 11:50:34;;;;;;;;;;;;;;;;;;;;;
2023/05/12 17:40:43;;;;;;;17.27;7.95;;;;;;;;;;6260858;22;20055;-95
2023/05/12 17:43:09;;;;;;;17.85;7.55;;;;;;;;;;6278784;22;20008;-95
2023/05/12 17:45:35;;;;;;;12.82;6.63;;;;;;;;;;6254835;22;20013;-96
2023/05/12 17:48:05;;;;;;;9.25;6.10;;;;;;;;;;6280072;22;20300;-96
2023/05/12 17:50:31;;;;;;;11.95;5.57;;;;;;;;;;6257340;22;20012;-94
2023/05/12 17:52:57;;;;;;;11.77;5.13;;;;;;;;;;6281808;22;20022;-96
2023/05/12 17:55:30;;;;;;;10.02;5.30;;;;;;;;;;6282621;22;19998;-96
2023/05/12 17:57:56;;;;;;;7.32;4.85;;;;;;;;;;6280007;22;20067;-95
2023/05/12 18:00:25;;;;;;;6.55;3.85;;;;;;;;;;6253322;22;20183;-95
2023/05/12 18:02:51;;;;;;;16.80;4.68;;;;;;;;;;6279168;22;20003;-95
2023/05/12 18:05:17;;;;;;;5.82;3.75;;;;;;;;;;6255229;22;20560;-96
2023/05/12 18:07:43;;;;;;;5.53;3.92;;;;;;;;;;6256706;22;20290;-96
2023/05/12 18:10:10;;;;;;;5.32;3.67;;;;;;;;;;6254740;22;20016;-96
2023/05/12 18:12:37;;;;;;;5.97;4.00;;;;;;;;;;6281271;22;20010;-94
2023/05/12 18:15:07;;;;;;;6.00;4.13;;;;;;;;;;6280489;22;20349;-95
2023/05/12 18:17:39;;;;;;;8.88;4.15;;;;;;;;;;6255796;22;20082;-95
2023/05/12 18:20:08;;;;;;;7.50;3.63;;;;;;;;;;6278731;22;20374;-94
2023/05/12 18:22:34;;;;;;;5.18;3.65;;;;;;;;;;6280008;22;20087;-95
2023/05/12 18:25:00;;;;;;;5.68;3.65;;;;;;;;;;6279438;22;20013;-96
2023/05/12 18:27:26;;;;;;;7.03;3.55;;;;;;;;;;6253479;22;20409;-95
2023/05/12 18:29:52;;;;;;;7.20;3.35;;;;;;;;;;6254387;22;20022;-96
2023/05/12 18:32:19;;;;;;;6.13;3.45;;;;;;;;;;6279752;22;20012;-96
2023/05/12 18:34:45;;;;;;;6.07;3.10;;;;;;;;;;6254504;22;20492;-95
2023/05/12 18:37:14;;;;;;;6.00;3.35;;;;;;;;;;6254964;22;20066;-95
2023/05/12 18:39:41;;;;;;;10.35;2.88;;;;;;;;;;6254485;22;20015;-95
2023/05/12 18:42:09;;;;;;;3.45;3.03;;;;;;;;;;6252706;22;20055;-95
2023/05/12 18:44:35;;;;;;;5.50;3.22;;;;;;;;;;6254960;22;20004;-94
2023/05/12 18:47:02;;;;;;;8.65;2.75;;;;;;;;;;6255774;22;19999;-96
2023/05/12 18:49:29;;;;;;;7.70;3.05;;;;;;;;;;6276115;22;20037;-96
2023/05/12 18:51:55;;;;;;;17.08;3.40;;;;;;;;;;6255015;22;20452;-96
2023/05/12 18:54:21;;;;;;;5.93;2.83;;;;;;;;;;6277669;22;20088;-96
2023/05/12 18:56:49;;;;;;;6.25;3.38;;;;;;;;;;6254969;22;20018;-96
2023/05/12 18:59:15;;;;;;;5.50;3.13;;;;;;;;;;6253990;22;20428;-96
2023/05/12 19:01:45;;;;;;;9.13;3.08;;;;;;;;;;6252577;22;20010;-96
2023/05/12 19:04:15;;;;;;;8.23;2.97;;;;;;;;;;6276027;22;20019;-96
2023/05/12 19:06:44;;;;;;;4.43;3.13;;;;;;;;;;6253154;22;20084;-96
2023/05/12 19:09:10;;;;;;;9.88;3.42;;;;;;;;;;6250594;22;20042;-96
2023/05/12 19:11:38;;;;;;;10.85;3.10;;;;;;;;;;6274176;22;20027;-96
2023/05/12 19:14:04;;;;;;;10.32;3.53;;;;;;;;;;6251034;22;20042;-96
2023/05/12 19:16:41;;;;;;;13.73;3.35;;;;;;;;;;6278694;22;20319;-96
2023/05/12 19:19:07;;;;;;;6.07;4.00;;;;;;;;;;6275919;22;20019;-95
2023/05/12 19:21:33;;;;;;;10.77;3.25;;;;;;;;;;6251381;22;20016;-95
2023/05/12 19:24:00;;;;;;;7.47;3.45;;;;;;;;;;6251043;22;20641;-95
2023/05/12 19:26:26;;;;;;;7.53;3.72;;;;;;;;;;6252894;22;20015;-95
2023/05/12 19:28:52;;;;;;;8.90;3.20;;;;;;;;;;6251187;22;20064;-95
2023/05/12 19:31:19;;;;;;;11.43;3.25;;;;;;;;;;6276146;22;20086;-96
2023/05/12 19:33:45;;;;;;;7.68;3.30;;;;;;;;;;6253707;22;20031;-95
2023/05/12 19:36:17;;;;;;;6.60;2.97;;;;;;;;;;6252793;22;20011;-95
2023/05/12 19:38:44;;;;;;;9.35;4.22;;;;;;;;;;6254910;22;20035;-94
2023/05/12 19:41:11;;;;;;;6.45;4.22;;;;;;;;;;6253109;22;20023;-94
2023/05/12 19:43:37;;;;;;;8.88;4.15;;;;;;;;;;6276196;22;20422;-94
2023/05/12 19:46:11;;;;;;;8.55;3.78;;;;;;;;;;6251836;22;20050;-93
2023/05/12 19:48:37;;;;;;;6.38;3.88;;;;;;;;;;6276706;22;20007;-94
2023/05/12 19:51:03;;;;;;;9.35;4.38;;;;;;;;;;6276736;22;20000;-95
2023/05/12 19:53:29;;;;;;;10.80;4.43;;;;;;;;;;6251780;22;20373;-94
2023/05/12 19:55:56;;;;;;;9.93;4.32;;;;;;;;;;6250590;22;20337;-95
2023/05/12 19:58:22;;;;;;;7.10;3.90;;;;;;;;;;6253553;22;20012;-95
2023/05/12 20:00:48;;;;;;;11.73;4.68;;;;;;;;;;6278679;22;20042;-95
2023/05/12 20:03:14;;;;;;;17.13;4.55;;;;;;;;;;6252936;22;20015;-93
2023/05/12 20:05:40;;;;;;;9.85;4.38;;;;;;;;;;6253155;22;20016;-96
2023/05/12 20:08:06;;;;;;;8.00;4.32;;;;;;;;;;6254992;22;20015;-94
2023/05/12 20:10:33;;;;;;;9.82;4.75;;;;;;;;;;6277153;22;20012;-94
2023/05/12 20:13:02;;;;;;;5.97;3.97;;;;;;;;;;6250373;22;20003;-93
2023/05/12 20:15:32;;;;;;;6.28;4.28;;;;;;;;;;6278508;22;20000;-94
2023/05/12 20:18:02;;;;;;;12.68;4.90;;;;;;;;;;6253046;22;20108;-94
2023/05/12 20:20:29;;;;;;;8.68;4.22;;;;;;;;;;6276367;22;20004;-95
2023/05/12 20:22:55;;;;;;;6.65;4.10;;;;;;;;;;6249767;22;20022;-94
2023/05/12 20:25:21;;;;;;;17.38;4.57;;;;;;;;;;6251329;22;20012;-94
2023/05/12 20:27:47;;;;;;;9.80;3.65;;;;;;;;;;6276552;22;20007;-95
2023/05/12 20:30:13;;;;;;;8.80;4.40;;;;;;;;;;6252904;22;20007;-95
2023/05/12 20:32:40;;;;;;;8.32;4.05;;;;;;;;;;6278721;22;20015;-94
2023/05/12 20:35:06;;;;;;;8.45;4.38;;;;;;;;;;6247647;22;20469;-94
2023/05/12 20:37:33;;;;;;;11.63;4.90;;;;;;;;;;6275374;22;20008;-96
2023/05/12 20:39:59;;;;;;;10.75;4.18;;;;;;;;;;6276840;22;20064;-95
2023/05/12 20:42:32;;;;;;;6.68;4.32;;;;;;;;;;6249204;22;20730;-95
2023/05/12 20:44:59;;;;;;;12.18;4.03;;;;;;;;;;6250872;22;20045;-94
2023/05/12 20:47:25;;;;;;;12.32;4.00;;;;;;;;;;6275081;22;20047;-95
2023/05/12 20:49:56;;;;;;;6.40;4.10;;;;;;;;;;6249260;22;20015;-94
2023/05/12 20:52:22;;;;;;;7.40;4.07;;;;;;;;;;6248475;22;20008;-94
2023/05/12 20:54:49;;;;;;;10.77;4.07;;;;;;;;;;6252628;22;20008;-95
2023/05/12 20:57:15;;;;;;;6.93;4.30;;;;;;;;;;6250575;22;20012;-95
2023/05/12 20:59:41;;;;;;;6.80;4.68;;;;;;;;;;6251232;22;20164;-94
2023/05/12 21:02:09;;;;;;;6.82;4.68;;;;;;;;;;6250437;22;20015;-94
2023/05/12 21:04:38;;;;;;;12.52;5.53;;;;;;;;;;6251350;22;20293;-95
2023/05/12 21:07:04;;;;;;;8.90;5.25;;;;;;;;;;6278600;22;20440;-93
2023/05/12 21:09:30;;;;;;;6.07;4.95;;;;;;;;;;6252281;22;20381;-95
2023/05/12 21:11:57;;;;;;;8.02;5.45;;;;;;;;;;6255900;22;20120;-93
2023/05/12 21:14:23;;;;;;;10.93;4.72;;;;;;;;;;6254448;22;20007;-94
2023/05/12 21:16:50;;;;;;;13.13;5.15;;;;;;;;;;6253236;22;20018;-92